Portada
METAR-TAF:

METAR-TAF

Aeropuertos :

Castres, Francia

latitud: 43-33-25N, longitud: 2-17-21E, altitud: 239 m

Observación

El informe se hizo hace 10 minutos, a las 08:00 UTC
Viento 2 kt con dirección variable
Temperatura 21°C
Humedad 73%
Presión 1019 hPa
Visibilidad 10 km o más
Cielo nuboso a una altura de 4000 ft

METAR: LFCK 140800Z AUTO VRB02KT 9999 BKN040 21/16 Q1019 NOSIG

Hora: 10:10 (08:10 UTC)

Pronóstico

El informe se hizo hace 3 horas y 10 minutos, a las 05:00 UTC
Pronóstico válido del 14 a las 06 UTC al 14 a las 15 UTC
Viento 5 kt del oeste
Visibilidad 10 km o más
Cielo nuboso a una altura de 2500 ft
Temporalmente
del 14 a las 06 UTC al 14 a las 08 UTC
Cielo nuboso a una altura de 1300 ft

TAF: LFCK 140500Z 1406/1415 28005KT 9999 BKN025 TEMPO 1406/1408 BKN013

Observaciones y pronósticos meteorológicos de más de 4000 aeropuertos (mensajes METAR y TAF).

Los puntos amarillos y rojos representan las estaciones disponibles.

Ponga el ratón en el punto deseado para ver el nombre de la estación.

Haga clic para ver las observaciones y los pronósticos meteorológicos.

Para cambiar el mapa : haga clic en los botones verdes con una cruz de color negro para hacer un zoom, en el botón verde con un guión para alejar o en las flechas verdes para mapas adyacentes.


METAR-TAF: